sensor_id;sensor_type;location;lat;lon;timestamp;P1;durP1;ratioP1;P2;durP2;ratioP2
55067;SDS011;40965;52.368;9.712;2022-12-07T00:01:35;25.80;;;14.93;;
55067;SDS011;40965;52.368;9.712;2022-12-07T00:04:12;23.95;;;14.38;;
55067;SDS011;40965;52.368;9.712;2022-12-07T00:06:43;22.65;;;14.00;;
55067;SDS011;40965;52.368;9.712;2022-12-07T00:09:13;20.92;;;13.75;;
55067;SDS011;40965;52.368;9.712;2022-12-07T00:11:43;24.67;;;13.43;;
55067;SDS011;40965;52.368;9.712;2022-12-07T00:14:11;19.17;;;12.60;;
55067;SDS011;40965;52.368;9.712;2022-12-07T00:16:40;27.02;;;13.93;;
55067;SDS011;40965;52.368;9.712;2022-12-07T00:19:08;24.65;;;13.45;;
55067;SDS011;40965;52.368;9.712;2022-12-07T00:21:37;28.17;;;14.18;;
55067;SDS011;40965;52.368;9.712;2022-12-07T00:24:04;23.67;;;12.95;;
55067;SDS011;40965;52.368;9.712;2022-12-07T00:26:36;21.63;;;13.43;;
55067;SDS011;40965;52.368;9.712;2022-12-07T00:29:06;21.98;;;12.13;;
55067;SDS011;40965;52.368;9.712;2022-12-07T00:31:46;20.50;;;12.38;;
55067;SDS011;40965;52.368;9.712;2022-12-07T00:34:17;24.83;;;12.88;;
55067;SDS011;40965;52.368;9.712;2022-12-07T00:36:47;23.40;;;13.23;;
55067;SDS011;40965;52.368;9.712;2022-12-07T00:39:14;22.02;;;12.65;;
55067;SDS011;40965;52.368;9.712;2022-12-07T00:41:41;19.90;;;12.13;;
55067;SDS011;40965;52.368;9.712;2022-12-07T00:44:07;19.45;;;11.73;;
55067;SDS011;40965;52.368;9.712;2022-12-07T00:46:34;20.60;;;11.82;;
55067;SDS011;40965;52.368;9.712;2022-12-07T00:49:00;22.65;;;11.48;;
55067;SDS011;40965;52.368;9.712;2022-12-07T00:51:27;19.98;;;11.77;;
55067;SDS011;40965;52.368;9.712;2022-12-07T00:53:53;18.75;;;11.20;;
55067;SDS011;40965;52.368;9.712;2022-12-07T00:56:24;20.45;;;12.23;;
55067;SDS011;40965;52.368;9.712;2022-12-07T00:58:54;16.63;;;10.95;;
55067;SDS011;40965;52.368;9.712;2022-12-07T01:01:26;18.00;;;11.38;;
55067;SDS011;40965;52.368;9.712;2022-12-07T01:03:56;18.38;;;11.73;;
55067;SDS011;40965;52.368;9.712;2022-12-07T01:06:23;23.05;;;13.35;;
55067;SDS011;40965;52.368;9.712;2022-12-07T01:08:51;19.75;;;12.15;;
55067;SDS011;40965;52.368;9.712;2022-12-07T01:11:19;23.30;;;13.13;;
55067;SDS011;40965;52.368;9.712;2022-12-07T01:13:52;20.17;;;12.93;;
55067;SDS011;40965;52.368;9.712;2022-12-07T01:16:21;26.77;;;15.27;;
55067;SDS011;40965;52.368;9.712;2022-12-07T01:18:51;21.63;;;13.30;;
55067;SDS011;40965;52.368;9.712;2022-12-07T01:21:22;28.27;;;14.65;;
55067;SDS011;40965;52.368;9.712;2022-12-07T01:23:54;25.13;;;14.43;;
55067;SDS011;40965;52.368;9.712;2022-12-07T01:26:24;24.90;;;15.27;;
55067;SDS011;40965;52.368;9.712;2022-12-07T01:28:51;22.80;;;14.02;;
55067;SDS011;40965;52.368;9.712;2022-12-07T01:31:20;31.48;;;14.85;;
55067;SDS011;40965;52.368;9.712;2022-12-07T01:33:51;24.92;;;16.27;;
55067;SDS011;40965;52.368;9.712;2022-12-07T01:36:20;25.67;;;15.18;;
55067;SDS011;40965;52.368;9.712;2022-12-07T01:38:51;23.02;;;14.10;;
55067;SDS011;40965;52.368;9.712;2022-12-07T01:41:21;24.83;;;16.55;;
55067;SDS011;40965;52.368;9.712;2022-12-07T01:44:07;27.33;;;16.42;;
55067;SDS011;40965;52.368;9.712;2022-12-07T01:46:42;23.00;;;14.32;;
55067;SDS011;40965;52.368;9.712;2022-12-07T01:49:17;21.02;;;13.50;;
55067;SDS011;40965;52.368;9.712;2022-12-07T01:52:22;25.77;;;15.35;;
55067;SDS011;40965;52.368;9.712;2022-12-07T01:54:54;23.13;;;14.45;;
55067;SDS011;40965;52.368;9.712;2022-12-07T01:57:26;20.25;;;13.32;;
55067;SDS011;40965;52.368;9.712;2022-12-07T01:59:53;19.15;;;14.27;;
55067;SDS011;40965;52.368;9.712;2022-12-07T02:02:23;22.70;;;13.63;;
55067;SDS011;40965;52.368;9.712;2022-12-07T02:04:56;24.35;;;14.95;;
55067;SDS011;40965;52.368;9.712;2022-12-07T02:07:25;23.05;;;14.93;;
55067;SDS011;40965;52.368;9.712;2022-12-07T02:09:54;24.70;;;15.38;;
55067;SDS011;40965;52.368;9.712;2022-12-07T02:12:20;20.15;;;13.68;;
55067;SDS011;40965;52.368;9.712;2022-12-07T02:14:49;23.23;;;14.27;;
55067;SDS011;40965;52.368;9.712;2022-12-07T02:17:41;21.40;;;14.25;;
55067;SDS011;40965;52.368;9.712;2022-12-07T02:23:38;20.77;;;12.07;;
55067;SDS011;40965;52.368;9.712;2022-12-07T02:26:46;25.23;;;15.00;;
55067;SDS011;40965;52.368;9.712;2022-12-07T02:29:31;22.40;;;13.98;;
55067;SDS011;40965;52.368;9.712;2022-12-07T02:32:12;21.08;;;13.65;;
55067;SDS011;40965;52.368;9.712;2022-12-07T02:34:52;19.58;;;13.55;;
55067;SDS011;40965;52.368;9.712;2022-12-07T02:37:42;22.77;;;13.98;;
55067;SDS011;40965;52.368;9.712;2022-12-07T02:40:22;23.70;;;14.07;;
55067;SDS011;40965;52.368;9.712;2022-12-07T02:43:02;23.25;;;13.00;;
55067;SDS011;40965;52.368;9.712;2022-12-07T02:45:34;19.73;;;12.30;;
55067;SDS011;40965;52.368;9.712;2022-12-07T02:48:05;18.33;;;11.90;;
55067;SDS011;40965;52.368;9.712;2022-12-07T02:50:33;19.40;;;12.68;;
55067;SDS011;40965;52.368;9.712;2022-12-07T02:52:59;19.80;;;12.48;;
55067;SDS011;40965;52.368;9.712;2022-12-07T02:55:28;20.60;;;13.45;;
55067;SDS011;40965;52.368;9.712;2022-12-07T02:58:14;21.10;;;12.95;;
55067;SDS011;40965;52.368;9.712;2022-12-07T03:03:37;21.17;;;12.80;;
55067;SDS011;40965;52.368;9.712;2022-12-07T03:06:32;18.02;;;11.80;;
55067;SDS011;40965;52.368;9.712;2022-12-07T03:09:14;24.42;;;12.88;;
55067;SDS011;40965;52.368;9.712;2022-12-07T03:11:50;17.98;;;12.07;;
55067;SDS011;40965;52.368;9.712;2022-12-07T03:14:31;17.30;;;10.70;;
55067;SDS011;40965;52.368;9.712;2022-12-07T03:17:07;19.95;;;11.60;;
55067;SDS011;40965;52.368;9.712;2022-12-07T03:22:08;17.48;;;11.30;;
55067;SDS011;40965;52.368;9.712;2022-12-07T03:24:48;18.13;;;11.60;;
55067;SDS011;40965;52.368;9.712;2022-12-07T03:27:26;18.50;;;11.45;;
55067;SDS011;40965;52.368;9.712;2022-12-07T03:30:02;16.63;;;11.20;;
55067;SDS011;40965;52.368;9.712;2022-12-07T03:35:34;15.65;;;9.57;;
55067;SDS011;40965;52.368;9.712;2022-12-07T03:38:27;15.52;;;10.27;;
55067;SDS011;40965;52.368;9.712;2022-12-07T03:43:40;15.00;;;9.32;;
55067;SDS011;40965;52.368;9.712;2022-12-07T03:49:09;15.65;;;10.30;;
55067;SDS011;40965;52.368;9.712;2022-12-07T03:51:49;15.65;;;8.45;;
55067;SDS011;40965;52.368;9.712;2022-12-07T03:54:43;15.00;;;8.57;;
55067;SDS011;40965;52.368;9.712;2022-12-07T03:57:17;16.98;;;8.75;;
55067;SDS011;40965;52.368;9.712;2022-12-07T03:59:45;16.45;;;8.93;;
55067;SDS011;40965;52.368;9.712;2022-12-07T04:02:13;15.10;;;8.77;;
55067;SDS011;40965;52.368;9.712;2022-12-07T04:04:40;13.77;;;8.95;;
55067;SDS011;40965;52.368;9.712;2022-12-07T04:07:08;16.83;;;9.07;;
55067;SDS011;40965;52.368;9.712;2022-12-07T04:09:35;20.90;;;9.40;;
55067;SDS011;40965;52.368;9.712;2022-12-07T04:12:02;15.10;;;9.48;;
55067;SDS011;40965;52.368;9.712;2022-12-07T04:14:28;17.90;;;9.63;;
55067;SDS011;40965;52.368;9.712;2022-12-07T04:16:56;14.85;;;8.90;;
55067;SDS011;40965;52.368;9.712;2022-12-07T04:19:25;15.50;;;8.55;;
55067;SDS011;40965;52.368;9.712;2022-12-07T04:21:54;14.43;;;8.75;;
55067;SDS011;40965;52.368;9.712;2022-12-07T04:24:22;18.67;;;10.18;;
55067;SDS011;40965;52.368;9.712;2022-12-07T04:26:49;17.35;;;9.35;;
55067;SDS011;40965;52.368;9.712;2022-12-07T04:29:16;17.80;;;9.15;;
55067;SDS011;40965;52.368;9.712;2022-12-07T04:31:43;14.38;;;8.63;;
55067;SDS011;40965;52.368;9.712;2022-12-07T04:34:11;15.30;;;9.48;;
55067;SDS011;40965;52.368;9.712;2022-12-07T04:36:39;17.17;;;9.23;;
55067;SDS011;40965;52.368;9.712;2022-12-07T04:39:06;16.02;;;9.52;;
55067;SDS011;40965;52.368;9.712;2022-12-07T04:41:35;17.38;;;9.77;;
55067;SDS011;40965;52.368;9.712;2022-12-07T04:44:03;19.52;;;9.20;;
55067;SDS011;40965;52.368;9.712;2022-12-07T04:46:32;15.70;;;9.52;;
55067;SDS011;40965;52.368;9.712;2022-12-07T04:48:59;16.95;;;8.27;;
55067;SDS011;40965;52.368;9.712;2022-12-07T04:51:27;18.38;;;8.52;;
55067;SDS011;40965;52.368;9.712;2022-12-07T04:53:55;13.88;;;8.68;;
55067;SDS011;40965;52.368;9.712;2022-12-07T04:56:22;14.65;;;8.57;;
55067;SDS011;40965;52.368;9.712;2022-12-07T04:58:49;15.85;;;8.23;;
55067;SDS011;40965;52.368;9.712;2022-12-07T05:01:19;21.92;;;11.10;;
55067;SDS011;40965;52.368;9.712;2022-12-07T05:03:47;17.67;;;8.68;;
55067;SDS011;40965;52.368;9.712;2022-12-07T05:06:13;16.60;;;9.13;;
55067;SDS011;40965;52.368;9.712;2022-12-07T05:08:40;19.20;;;10.02;;
55067;SDS011;40965;52.368;9.712;2022-12-07T05:11:08;16.27;;;8.55;;
55067;SDS011;40965;52.368;9.712;2022-12-07T05:13:57;16.42;;;9.30;;
55067;SDS011;40965;52.368;9.712;2022-12-07T05:16:23;16.27;;;9.43;;
55067;SDS011;40965;52.368;9.712;2022-12-07T05:18:50;16.25;;;8.10;;
55067;SDS011;40965;52.368;9.712;2022-12-07T05:21:16;19.50;;;8.73;;
55067;SDS011;40965;52.368;9.712;2022-12-07T05:23:43;16.02;;;8.88;;
55067;SDS011;40965;52.368;9.712;2022-12-07T05:26:09;15.00;;;7.95;;
55067;SDS011;40965;52.368;9.712;2022-12-07T05:28:36;13.85;;;7.10;;
55067;SDS011;40965;52.368;9.712;2022-12-07T05:31:02;17.42;;;8.05;;
55067;SDS011;40965;52.368;9.712;2022-12-07T05:33:29;14.95;;;8.48;;
55067;SDS011;40965;52.368;9.712;2022-12-07T05:35:55;14.68;;;7.25;;
55067;SDS011;40965;52.368;9.712;2022-12-07T05:38:22;16.02;;;7.93;;
55067;SDS011;40965;52.368;9.712;2022-12-07T05:40:49;16.02;;;8.68;;
55067;SDS011;40965;52.368;9.712;2022-12-07T05:43:16;14.73;;;7.30;;
55067;SDS011;40965;52.368;9.712;2022-12-07T05:45:42;15.90;;;8.73;;
55067;SDS011;40965;52.368;9.712;2022-12-07T05:48:09;16.60;;;8.07;;
55067;SDS011;40965;52.368;9.712;2022-12-07T05:50:35;14.80;;;7.13;;
55067;SDS011;40965;52.368;9.712;2022-12-07T05:53:02;19.90;;;8.73;;
55067;SDS011;40965;52.368;9.712;2022-12-07T05:55:28;12.75;;;6.93;;
55067;SDS011;40965;52.368;9.712;2022-12-07T05:57:55;12.95;;;7.43;;
55067;SDS011;40965;52.368;9.712;2022-12-07T06:00:35;17.00;;;7.35;;
55067;SDS011;40965;52.368;9.712;2022-12-07T06:03:05;13.60;;;6.60;;
55067;SDS011;40965;52.368;9.712;2022-12-07T06:05:31;13.63;;;6.90;;
55067;SDS011;40965;52.368;9.712;2022-12-07T06:07:58;12.73;;;6.78;;
55067;SDS011;40965;52.368;9.712;2022-12-07T06:10:24;13.00;;;5.68;;
55067;SDS011;40965;52.368;9.712;2022-12-07T06:12:51;20.60;;;7.65;;
55067;SDS011;40965;52.368;9.712;2022-12-07T06:15:16;16.48;;;8.68;;
55067;SDS011;40965;52.368;9.712;2022-12-07T06:17:43;17.02;;;7.03;;
55067;SDS011;40965;52.368;9.712;2022-12-07T06:20:09;18.90;;;6.60;;
55067;SDS011;40965;52.368;9.712;2022-12-07T06:22:36;9.45;;;5.40;;
55067;SDS011;40965;52.368;9.712;2022-12-07T06:25:02;8.10;;;5.03;;
55067;SDS011;40965;52.368;9.712;2022-12-07T06:27:29;12.82;;;5.93;;
55067;SDS011;40965;52.368;9.712;2022-12-07T06:29:57;10.65;;;5.05;;
55067;SDS011;40965;52.368;9.712;2022-12-07T06:32:24;14.38;;;7.10;;
55067;SDS011;40965;52.368;9.712;2022-12-07T06:34:51;17.02;;;6.63;;
55067;SDS011;40965;52.368;9.712;2022-12-07T06:37:17;15.23;;;6.75;;
55067;SDS011;40965;52.368;9.712;2022-12-07T06:39:44;14.73;;;8.23;;
55067;SDS011;40965;52.368;9.712;2022-12-07T06:42:11;15.95;;;7.25;;
55067;SDS011;40965;52.368;9.712;2022-12-07T06:44:37;14.52;;;7.53;;
55067;SDS011;40965;52.368;9.712;2022-12-07T06:47:04;20.00;;;8.05;;
55067;SDS011;40965;52.368;9.712;2022-12-07T06:49:32;19.27;;;7.78;;
55067;SDS011;40965;52.368;9.712;2022-12-07T06:51:59;22.33;;;7.82;;
55067;SDS011;40965;52.368;9.712;2022-12-07T06:54:25;12.43;;;6.63;;
55067;SDS011;40965;52.368;9.712;2022-12-07T06:56:52;19.90;;;8.45;;
55067;SDS011;40965;52.368;9.712;2022-12-07T06:59:18;25.20;;;10.63;;
55067;SDS011;40965;52.368;9.712;2022-12-07T07:01:47;18.85;;;8.93;;
55067;SDS011;40965;52.368;9.712;2022-12-07T07:04:14;9.02;;;4.32;;
55067;SDS011;40965;52.368;9.712;2022-12-07T07:06:40;6.93;;;3.80;;
55067;SDS011;40965;52.368;9.712;2022-12-07T07:09:07;5.18;;;3.45;;
55067;SDS011;40965;52.368;9.712;2022-12-07T07:11:34;6.53;;;3.90;;
55067;SDS011;40965;52.368;9.712;2022-12-07T07:14:00;9.48;;;4.60;;
55067;SDS011;40965;52.368;9.712;2022-12-07T07:16:28;8.52;;;4.13;;
55067;SDS011;40965;52.368;9.712;2022-12-07T07:18:56;6.88;;;2.75;;
55067;SDS011;40965;52.368;9.712;2022-12-07T07:21:23;4.80;;;3.50;;
55067;SDS011;40965;52.368;9.712;2022-12-07T07:23:49;7.20;;;2.88;;
55067;SDS011;40965;52.368;9.712;2022-12-07T07:26:16;8.10;;;2.78;;
55067;SDS011;40965;52.368;9.712;2022-12-07T07:28:43;9.15;;;3.00;;
55067;SDS011;40965;52.368;9.712;2022-12-07T07:31:10;3.25;;;1.98;;
55067;SDS011;40965;52.368;9.712;2022-12-07T07:33:36;6.22;;;3.13;;
55067;SDS011;40965;52.368;9.712;2022-12-07T07:36:03;7.50;;;1.90;;
55067;SDS011;40965;52.368;9.712;2022-12-07T07:38:29;10.23;;;2.80;;
55067;SDS011;40965;52.368;9.712;2022-12-07T07:40:56;5.40;;;2.15;;
55067;SDS011;40965;52.368;9.712;2022-12-07T07:43:23;5.88;;;2.15;;
55067;SDS011;40965;52.368;9.712;2022-12-07T07:45:49;8.40;;;2.60;;
55067;SDS011;40965;52.368;9.712;2022-12-07T07:48:16;5.72;;;2.30;;
55067;SDS011;40965;52.368;9.712;2022-12-07T07:50:42;3.35;;;2.17;;
55067;SDS011;40965;52.368;9.712;2022-12-07T07:53:08;4.45;;;1.88;;
55067;SDS011;40965;52.368;9.712;2022-12-07T07:55:35;3.63;;;1.83;;
55067;SDS011;40965;52.368;9.712;2022-12-07T07:58:01;5.43;;;1.95;;
55067;SDS011;40965;52.368;9.712;2022-12-07T08:00:28;2.63;;;1.80;;
55067;SDS011;40965;52.368;9.712;2022-12-07T08:02:55;5.07;;;2.03;;
55067;SDS011;40965;52.368;9.712;2022-12-07T08:05:21;3.38;;;1.83;;
55067;SDS011;40965;52.368;9.712;2022-12-07T08:07:47;4.63;;;1.23;;
55067;SDS011;40965;52.368;9.712;2022-12-07T08:10:14;6.78;;;1.70;;
55067;SDS011;40965;52.368;9.712;2022-12-07T08:12:41;2.00;;;1.80;;
55067;SDS011;40965;52.368;9.712;2022-12-07T08:15:23;4.43;;;1.30;;
55067;SDS011;40965;52.368;9.712;2022-12-07T08:17:50;3.22;;;1.33;;
55067;SDS011;40965;52.368;9.712;2022-12-07T08:20:17;6.22;;;2.17;;
55067;SDS011;40965;52.368;9.712;2022-12-07T08:22:43;4.40;;;1.50;;
55067;SDS011;40965;52.368;9.712;2022-12-07T08:25:10;8.27;;;1.98;;
55067;SDS011;40965;52.368;9.712;2022-12-07T08:27:36;6.28;;;2.63;;
55067;SDS011;40965;52.368;9.712;2022-12-07T08:30:03;7.70;;;2.88;;
55067;SDS011;40965;52.368;9.712;2022-12-07T08:32:30;8.43;;;1.83;;
55067;SDS011;40965;52.368;9.712;2022-12-07T08:34:56;6.28;;;1.67;;
55067;SDS011;40965;52.368;9.712;2022-12-07T08:37:23;3.00;;;1.20;;
55067;SDS011;40965;52.368;9.712;2022-12-07T08:39:49;2.38;;;1.38;;
55067;SDS011;40965;52.368;9.712;2022-12-07T08:42:16;2.40;;;0.73;;
55067;SDS011;40965;52.368;9.712;2022-12-07T08:44:42;2.30;;;1.00;;
55067;SDS011;40965;52.368;9.712;2022-12-07T08:47:09;6.07;;;1.40;;
55067;SDS011;40965;52.368;9.712;2022-12-07T08:49:38;2.70;;;0.90;;
55067;SDS011;40965;52.368;9.712;2022-12-07T08:52:09;4.40;;;1.00;;
55067;SDS011;40965;52.368;9.712;2022-12-07T08:54:36;7.78;;;1.02;;
55067;SDS011;40965;52.368;9.712;2022-12-07T08:57:06;5.30;;;1.52;;
55067;SDS011;40965;52.368;9.712;2022-12-07T08:59:33;5.75;;;1.40;;
55067;SDS011;40965;52.368;9.712;2022-12-07T09:02:02;4.15;;;1.00;;
55067;SDS011;40965;52.368;9.712;2022-12-07T09:04:30;9.75;;;1.58;;
55067;SDS011;40965;52.368;9.712;2022-12-07T09:06:56;8.38;;;2.33;;
55067;SDS011;40965;52.368;9.712;2022-12-07T09:09:23;1.60;;;1.50;;
55067;SDS011;40965;52.368;9.712;2022-12-07T09:11:50;1.02;;;0.60;;
55067;SDS011;40965;52.368;9.712;2022-12-07T09:14:16;6.35;;;0.70;;
55067;SDS011;40965;52.368;9.712;2022-12-07T09:16:43;4.55;;;1.13;;
55067;SDS011;40965;52.368;9.712;2022-12-07T09:19:10;2.38;;;0.80;;
55067;SDS011;40965;52.368;9.712;2022-12-07T09:21:36;5.75;;;1.00;;
55067;SDS011;40965;52.368;9.712;2022-12-07T09:24:03;1.65;;;0.95;;
55067;SDS011;40965;52.368;9.712;2022-12-07T09:26:30;1.88;;;0.70;;
55067;SDS011;40965;52.368;9.712;2022-12-07T09:28:56;8.60;;;0.80;;
55067;SDS011;40965;52.368;9.712;2022-12-07T09:31:23;3.05;;;0.75;;
55067;SDS011;40965;52.368;9.712;2022-12-07T09:33:53;2.00;;;0.77;;
55067;SDS011;40965;52.368;9.712;2022-12-07T09:36:21;9.90;;;2.17;;
55067;SDS011;40965;52.368;9.712;2022-12-07T09:38:47;1.33;;;0.80;;
55067;SDS011;40965;52.368;9.712;2022-12-07T09:41:14;3.33;;;1.00;;
55067;SDS011;40965;52.368;9.712;2022-12-07T09:43:41;3.05;;;0.90;;
55067;SDS011;40965;52.368;9.712;2022-12-07T09:46:08;2.92;;;0.50;;
55067;SDS011;40965;52.368;9.712;2022-12-07T09:48:39;1.35;;;0.80;;
55067;SDS011;40965;52.368;9.712;2022-12-07T09:51:18;9.05;;;1.55;;
55067;SDS011;40965;52.368;9.712;2022-12-07T09:53:48;2.72;;;0.77;;
55067;SDS011;40965;52.368;9.712;2022-12-07T09:56:16;3.72;;;0.50;;
55067;SDS011;40965;52.368;9.712;2022-12-07T09:58:45;7.65;;;0.93;;
55067;SDS011;40965;52.368;9.712;2022-12-07T10:01:14;6.38;;;0.90;;
55067;SDS011;40965;52.368;9.712;2022-12-07T10:03:50;1.55;;;0.60;;
55067;SDS011;40965;52.368;9.712;2022-12-07T10:06:19;2.20;;;0.60;;
55067;SDS011;40965;52.368;9.712;2022-12-07T10:08:46;1.25;;;1.13;;
55067;SDS011;40965;52.368;9.712;2022-12-07T10:11:13;4.03;;;0.95;;
55067;SDS011;40965;52.368;9.712;2022-12-07T10:13:48;3.50;;;0.77;;
55067;SDS011;40965;52.368;9.712;2022-12-07T10:18:52;0.95;;;0.50;;
55067;SDS011;40965;52.368;9.712;2022-12-07T10:21:20;2.72;;;0.60;;
55067;SDS011;40965;52.368;9.712;2022-12-07T10:29:23;8.48;;;1.10;;
55067;SDS011;40965;52.368;9.712;2022-12-07T10:34:40;3.88;;;1.33;;
55067;SDS011;40965;52.368;9.712;2022-12-07T10:37:14;1.38;;;0.60;;
55067;SDS011;40965;52.368;9.712;2022-12-07T10:39:47;4.18;;;0.82;;
55067;SDS011;40965;52.368;9.712;2022-12-07T10:42:27;4.85;;;1.10;;
55067;SDS011;40965;52.368;9.712;2022-12-07T10:56:32;5.45;;;1.13;;
55067;SDS011;40965;52.368;9.712;2022-12-07T11:01:46;9.20;;;1.40;;
55067;SDS011;40965;52.368;9.712;2022-12-07T11:10:18;3.30;;;0.90;;
55067;SDS011;40965;52.368;9.712;2022-12-07T11:16:04;2.05;;;0.82;;
55067;SDS011;40965;52.368;9.712;2022-12-07T11:18:48;2.00;;;0.57;;
55067;SDS011;40965;52.368;9.712;2022-12-07T11:24:41;5.10;;;2.30;;
55067;SDS011;40965;52.368;9.712;2022-12-07T11:27:23;0.82;;;0.20;;
55067;SDS011;40965;52.368;9.712;2022-12-07T11:35:56;1.85;;;0.90;;
55067;SDS011;40965;52.368;9.712;2022-12-07T11:38:49;2.60;;;0.90;;
55067;SDS011;40965;52.368;9.712;2022-12-07T11:41:26;4.93;;;1.27;;
55067;SDS011;40965;52.368;9.712;2022-12-07T11:44:04;1.70;;;0.88;;
55067;SDS011;40965;52.368;9.712;2022-12-07T11:46:46;0.90;;;0.85;;
55067;SDS011;40965;52.368;9.712;2022-12-07T11:49:40;3.70;;;1.20;;
55067;SDS011;40965;52.368;9.712;2022-12-07T11:55:18;3.42;;;1.45;;
55067;SDS011;40965;52.368;9.712;2022-12-07T12:04:01;3.40;;;1.42;;
55067;SDS011;40965;52.368;9.712;2022-12-07T12:06:41;6.30;;;2.30;;
55067;SDS011;40965;52.368;9.712;2022-12-07T12:09:14;1.63;;;1.42;;
55067;SDS011;40965;52.368;9.712;2022-12-07T12:22:49;3.35;;;1.48;;
55067;SDS011;40965;52.368;9.712;2022-12-07T12:25:23;11.98;;;1.75;;
55067;SDS011;40965;52.368;9.712;2022-12-07T12:27:57;8.65;;;1.60;;
55067;SDS011;40965;52.368;9.712;2022-12-07T12:30:33;10.13;;;2.65;;
55067;SDS011;40965;52.368;9.712;2022-12-07T12:33:06;3.67;;;1.30;;
55067;SDS011;40965;52.368;9.712;2022-12-07T12:51:49;7.25;;;1.25;;
55067;SDS011;40965;52.368;9.712;2022-12-07T12:54:22;5.38;;;1.88;;
55067;SDS011;40965;52.368;9.712;2022-12-07T12:59:57;4.22;;;1.42;;
55067;SDS011;40965;52.368;9.712;2022-12-07T13:02:32;6.57;;;1.00;;
55067;SDS011;40965;52.368;9.712;2022-12-07T13:13:25;7.88;;;1.60;;
55067;SDS011;40965;52.368;9.712;2022-12-07T13:18:36;9.00;;;1.42;;
55067;SDS011;40965;52.368;9.712;2022-12-07T13:23:35;4.82;;;1.50;;
55067;SDS011;40965;52.368;9.712;2022-12-07T13:26:18;6.63;;;1.60;;
55067;SDS011;40965;52.368;9.712;2022-12-07T13:31:43;3.50;;;1.75;;
55067;SDS011;40965;52.368;9.712;2022-12-07T13:37:10;10.60;;;1.98;;
55067;SDS011;40965;52.368;9.712;2022-12-07T13:39:44;9.80;;;2.38;;
55067;SDS011;40965;52.368;9.712;2022-12-07T13:42:39;7.07;;;1.98;;
55067;SDS011;40965;52.368;9.712;2022-12-07T13:45:24;10.25;;;2.13;;
55067;SDS011;40965;52.368;9.712;2022-12-07T13:48:10;6.22;;;3.05;;
55067;SDS011;40965;52.368;9.712;2022-12-07T13:53:12;2.58;;;1.83;;
55067;SDS011;40965;52.368;9.712;2022-12-07T13:55:44;10.80;;;2.15;;
55067;SDS011;40965;52.368;9.712;2022-12-07T13:58:12;5.72;;;1.40;;
55067;SDS011;40965;52.368;9.712;2022-12-07T14:00:39;4.50;;;1.48;;
55067;SDS011;40965;52.368;9.712;2022-12-07T14:05:42;4.18;;;1.45;;
55067;SDS011;40965;52.368;9.712;2022-12-07T14:10:38;8.02;;;2.97;;
55067;SDS011;40965;52.368;9.712;2022-12-07T14:16:05;5.22;;;1.23;;
55067;SDS011;40965;52.368;9.712;2022-12-07T14:18:52;9.23;;;2.20;;
55067;SDS011;40965;52.368;9.712;2022-12-07T14:21:22;6.63;;;1.92;;
55067;SDS011;40965;52.368;9.712;2022-12-07T14:24:08;5.30;;;1.40;;
55067;SDS011;40965;52.368;9.712;2022-12-07T14:26:46;2.30;;;1.52;;
55067;SDS011;40965;52.368;9.712;2022-12-07T14:29:20;5.15;;;2.45;;
55067;SDS011;40965;52.368;9.712;2022-12-07T14:31:47;6.45;;;3.85;;
55067;SDS011;40965;52.368;9.712;2022-12-07T14:34:14;8.48;;;3.08;;
55067;SDS011;40965;52.368;9.712;2022-12-07T14:36:40;2.88;;;1.38;;
55067;SDS011;40965;52.368;9.712;2022-12-07T14:39:07;7.60;;;3.17;;
55067;SDS011;40965;52.368;9.712;2022-12-07T14:41:33;6.03;;;1.08;;
55067;SDS011;40965;52.368;9.712;2022-12-07T14:44:22;4.70;;;0.90;;
55067;SDS011;40965;52.368;9.712;2022-12-07T14:46:49;6.68;;;1.42;;
55067;SDS011;40965;52.368;9.712;2022-12-07T14:49:16;6.20;;;1.27;;
55067;SDS011;40965;52.368;9.712;2022-12-07T14:51:44;5.70;;;2.42;;
55067;SDS011;40965;52.368;9.712;2022-12-07T14:54:14;6.93;;;4.47;;
55067;SDS011;40965;52.368;9.712;2022-12-07T14:56:44;5.40;;;3.05;;
55067;SDS011;40965;52.368;9.712;2022-12-07T14:59:14;1.45;;;0.85;;
55067;SDS011;40965;52.368;9.712;2022-12-07T15:01:42;12.98;;;4.75;;
55067;SDS011;40965;52.368;9.712;2022-12-07T15:04:09;5.75;;;2.72;;
55067;SDS011;40965;52.368;9.712;2022-12-07T15:06:35;7.03;;;3.45;;
55067;SDS011;40965;52.368;9.712;2022-12-07T15:09:02;15.20;;;4.30;;
55067;SDS011;40965;52.368;9.712;2022-12-07T15:11:29;5.32;;;1.50;;
55067;SDS011;40965;52.368;9.712;2022-12-07T15:13:56;7.38;;;2.92;;
55067;SDS011;40965;52.368;9.712;2022-12-07T15:16:36;1.75;;;1.65;;
55067;SDS011;40965;52.368;9.712;2022-12-07T15:19:06;4.30;;;1.60;;
55067;SDS011;40965;52.368;9.712;2022-12-07T15:21:38;9.80;;;1.65;;
55067;SDS011;40965;52.368;9.712;2022-12-07T15:24:05;4.95;;;2.20;;
55067;SDS011;40965;52.368;9.712;2022-12-07T15:26:33;3.67;;;1.55;;
55067;SDS011;40965;52.368;9.712;2022-12-07T15:29:00;6.00;;;1.58;;
55067;SDS011;40965;52.368;9.712;2022-12-07T15:31:26;4.35;;;2.38;;
55067;SDS011;40965;52.368;9.712;2022-12-07T15:33:53;6.88;;;2.08;;
55067;SDS011;40965;52.368;9.712;2022-12-07T15:36:20;7.65;;;1.08;;
55067;SDS011;40965;52.368;9.712;2022-12-07T15:38:50;4.03;;;2.22;;
55067;SDS011;40965;52.368;9.712;2022-12-07T15:41:16;8.82;;;1.73;;
55067;SDS011;40965;52.368;9.712;2022-12-07T15:43:43;8.70;;;4.63;;
55067;SDS011;40965;52.368;9.712;2022-12-07T15:46:35;1.98;;;1.67;;
55067;SDS011;40965;52.368;9.712;2022-12-07T15:49:15;8.35;;;1.65;;
55067;SDS011;40965;52.368;9.712;2022-12-07T15:51:44;10.93;;;2.80;;
55067;SDS011;40965;52.368;9.712;2022-12-07T15:54:13;7.22;;;2.13;;
55067;SDS011;40965;52.368;9.712;2022-12-07T15:56:46;7.72;;;2.90;;
55067;SDS011;40965;52.368;9.712;2022-12-07T15:59:13;15.98;;;6.75;;
55067;SDS011;40965;52.368;9.712;2022-12-07T16:01:40;7.25;;;2.90;;
55067;SDS011;40965;52.368;9.712;2022-12-07T16:04:06;8.70;;;3.17;;
55067;SDS011;40965;52.368;9.712;2022-12-07T16:06:33;8.63;;;4.47;;
55067;SDS011;40965;52.368;9.712;2022-12-07T16:09:00;9.27;;;2.80;;
55067;SDS011;40965;52.368;9.712;2022-12-07T16:11:26;9.07;;;2.80;;
55067;SDS011;40965;52.368;9.712;2022-12-07T16:13:53;20.05;;;8.23;;
55067;SDS011;40965;52.368;9.712;2022-12-07T16:16:19;7.75;;;3.13;;
55067;SDS011;40965;52.368;9.712;2022-12-07T16:18:47;10.18;;;4.32;;
55067;SDS011;40965;52.368;9.712;2022-12-07T16:21:15;6.82;;;2.83;;
55067;SDS011;40965;52.368;9.712;2022-12-07T16:23:42;9.70;;;4.43;;
55067;SDS011;40965;52.368;9.712;2022-12-07T16:26:17;21.58;;;7.60;;
55067;SDS011;40965;52.368;9.712;2022-12-07T16:28:48;8.45;;;4.65;;
55067;SDS011;40965;52.368;9.712;2022-12-07T16:31:17;13.10;;;5.60;;
55067;SDS011;40965;52.368;9.712;2022-12-07T16:33:47;17.55;;;6.97;;
55067;SDS011;40965;52.368;9.712;2022-12-07T16:36:14;12.98;;;4.93;;
55067;SDS011;40965;52.368;9.712;2022-12-07T16:38:41;16.48;;;7.85;;
55067;SDS011;40965;52.368;9.712;2022-12-07T16:41:09;10.35;;;4.65;;
55067;SDS011;40965;52.368;9.712;2022-12-07T16:43:36;7.30;;;4.13;;
55067;SDS011;40965;52.368;9.712;2022-12-07T16:46:03;5.78;;;2.75;;
55067;SDS011;40965;52.368;9.712;2022-12-07T16:48:30;9.35;;;4.07;;
55067;SDS011;40965;52.368;9.712;2022-12-07T16:50:57;6.85;;;3.50;;
55067;SDS011;40965;52.368;9.712;2022-12-07T16:53:30;5.82;;;3.65;;
55067;SDS011;40965;52.368;9.712;2022-12-07T16:55:57;6.03;;;2.50;;
55067;SDS011;40965;52.368;9.712;2022-12-07T16:58:23;5.97;;;2.83;;
55067;SDS011;40965;52.368;9.712;2022-12-07T17:00:51;10.07;;;6.00;;
55067;SDS011;40965;52.368;9.712;2022-12-07T17:03:17;10.75;;;5.90;;
55067;SDS011;40965;52.368;9.712;2022-12-07T17:05:44;10.13;;;4.28;;
55067;SDS011;40965;52.368;9.712;2022-12-07T17:08:12;9.65;;;4.57;;